Terminal Aerodrome Forecast
Issued by NWS Central Illinois

Home | Current Version | Previous Version | Text Only | Print | Product List | Glossary On
Versions: 1 2 3 4 5 6 7 8 9 10 11 12 13 14 15 16 17 18 19 20 21
000
FTUS43 KILX 301700
TAFPIA
TAF
KPIA 301737Z 3018/3118 17008KT P6SM VCSH BKN070
     FM302100 VRB06KT P6SM SCT070 BKN120
     FM310200 33005KT P6SM VCSH BKN050
     FM311100 34014KT P6SM SCT050
     FM311500 34020G30KT P6SM SCT100=

USA.gov is the U.S. government's official web portal to all federal, state and local government web resources and services.